Time;durP1;ratioP1;P1;durP2;ratioP2;P2;SDS_P1;SDS_P2;PMS_P1;PMS_P2;Temp;Humidity;BMP_temperature;BMP_pressure;BME280_temperature;BME280_humidity;BME280_pressure;Samples;Min_cycle;Max_cycle;Signal;HPM_P1;HPM_P2
2021/01/20 00:01:08;;;;;;;2.92;2.50;;;3.40;70.10;;;;;;5014676;28;20037;-66
2021/01/20 00:03:33;;;;;;;5.00;2.67;;;3.40;69.80;;;;;;5017233;28;20084;-66
2021/01/20 00:05:59;;;;;;;3.65;2.65;;;3.40;69.70;;;;;;5015844;28;20700;-65
2021/01/20 00:08:24;;;;;;;4.50;2.95;;;3.40;69.80;;;;;;5014598;28;20051;-66
2021/01/20 00:10:50;;;;;;;3.25;2.60;;;3.40;69.80;;;;;;5016461;28;20037;-65
2021/01/20 00:13:16;;;;;;;2.90;2.60;;;3.30;69.60;;;;;;5008730;28;20666;-66
2021/01/20 00:15:42;;;;;;;2.63;2.40;;;3.30;69.40;;;;;;5004475;28;20049;-65
2021/01/20 00:18:08;;;;;;;2.80;2.25;;;3.30;69.50;;;;;;5001282;28;20517;-67
2021/01/20 00:20:34;;;;;;;3.28;2.63;;;3.20;69.60;;;;;;4994124;28;20056;-66
2021/01/20 00:23:00;;;;;;;3.38;2.53;;;3.20;69.70;;;;;;4996259;28;20865;-65
2021/01/20 00:25:25;;;;;;;3.00;2.38;;;3.20;69.80;;;;;;4996104;28;20132;-66
2021/01/20 00:27:51;;;;;;;3.17;2.58;;;3.20;69.80;;;;;;4995940;28;20121;-65
2021/01/20 00:30:17;;;;;;;3.08;2.63;;;3.20;69.80;;;;;;5001668;28;20030;-65
2021/01/20 00:32:43;;;;;;;2.75;2.53;;;3.20;69.80;;;;;;4996999;28;20513;-66
2021/01/20 00:35:11;;;;;;;2.67;2.28;;;3.10;69.80;;;;;;5001897;28;20041;-67
2021/01/20 00:37:37;;;;;;;2.90;2.55;;;3.10;69.70;;;;;;5015174;28;20411;-66
2021/01/20 00:40:04;;;;;;;4.28;2.53;;;3.10;69.40;;;;;;5016359;28;20060;-66
2021/01/20 00:42:30;;;;;;;3.10;2.47;;;3.00;69.20;;;;;;5014450;28;20077;-63
2021/01/20 00:44:56;;;;;;;3.25;2.65;;;3.00;69.30;;;;;;5013635;28;20065;-65
2021/01/20 00:47:24;;;;;;;2.92;2.58;;;2.90;69.60;;;;;;5017125;28;20501;-64
2021/01/20 00:49:50;;;;;;;3.10;2.20;;;2.90;69.30;;;;;;5015683;28;20036;-64
2021/01/20 00:52:15;;;;;;;3.10;2.50;;;2.80;69.40;;;;;;5015751;28;20033;-66
2021/01/20 00:54:41;;;;;;;2.65;2.35;;;2.80;69.60;;;;;;5015913;28;20060;-67
2021/01/20 00:57:06;;;;;;;3.65;2.30;;;2.80;69.60;;;;;;5017228;28;20056;-65
2021/01/20 00:59:32;;;;;;;3.83;2.45;;;2.70;69.70;;;;;;5015468;28;20052;-66
2021/01/20 01:01:58;;;;;;;2.78;2.25;;;2.70;69.90;;;;;;5014891;28;20038;-65
2021/01/20 01:04:26;;;;;;;2.83;2.30;;;2.70;70.00;;;;;;5015334;28;20584;-66
2021/01/20 01:06:52;;;;;;;3.13;2.20;;;2.60;70.80;;;;;;5016110;28;20034;-65
2021/01/20 01:09:18;;;;;;;3.08;2.50;;;2.60;70.10;;;;;;5014749;28;20040;-65
2021/01/20 01:11:44;;;;;;;3.42;2.75;;;2.60;70.10;;;;;;5014896;28;20038;-65
2021/01/20 01:14:10;;;;;;;3.33;2.70;;;2.60;70.10;;;;;;5016845;28;20045;-67
2021/01/20 01:16:35;;;;;;;3.15;2.70;;;2.50;69.90;;;;;;5019540;28;20044;-66
2021/01/20 01:19:01;;;;;;;3.22;2.70;;;2.50;69.80;;;;;;5018481;28;20029;-65
2021/01/20 01:21:26;;;;;;;3.70;2.55;;;2.50;69.60;;;;;;5018905;28;20033;-65
2021/01/20 01:23:52;;;;;;;3.65;2.80;;;2.40;69.60;;;;;;5020748;28;20037;-65
2021/01/20 01:26:18;;;;;;;4.80;2.95;;;2.40;69.60;;;;;;5018632;28;20505;-66
2021/01/20 01:28:43;;;;;;;4.13;2.70;;;2.30;69.60;;;;;;5014600;28;20037;-66
2021/01/20 01:31:10;;;;;;;3.03;2.70;;;2.30;69.70;;;;;;5015688;28;20037;-65
2021/01/20 01:33:36;;;;;;;3.85;3.00;;;2.30;69.80;;;;;;5018381;28;20583;-64
2021/01/20 01:36:02;;;;;;;4.53;3.10;;;2.30;69.70;;;;;;5016443;28;20129;-65
2021/01/20 01:38:27;;;;;;;3.20;2.70;;;2.20;69.60;;;;;;5019810;28;20124;-65
2021/01/20 01:40:53;;;;;;;6.32;3.10;;;2.20;69.50;;;;;;5017750;28;20034;-66
2021/01/20 01:43:19;;;;;;;4.15;3.40;;;2.10;70.60;;;;;;5019141;28;20495;-66
2021/01/20 01:45:45;;;;;;;6.55;4.00;;;2.00;69.40;;;;;;5017742;28;20034;-64
2021/01/20 01:48:10;;;;;;;6.25;3.97;;;1.90;67.90;;;;;;5019505;28;20040;-65
2021/01/20 01:50:36;;;;;;;4.35;3.58;;;1.70;67.90;;;;;;5018906;28;20124;-65
2021/01/20 01:53:02;;;;;;;4.30;3.30;;;1.60;68.40;;;;;;5018281;28;20444;-65
2021/01/20 01:55:27;;;;;;;5.05;3.13;;;1.40;69.10;;;;;;5017564;28;20073;-63
2021/01/20 01:57:53;;;;;;;4.35;3.03;;;1.30;69.80;;;;;;5018328;28;20037;-64
2021/01/20 02:00:19;;;;;;;3.47;2.90;;;1.30;70.40;;;;;;5002812;28;20405;-64
2021/01/20 02:02:48;;;;;;;3.45;2.92;;;1.20;70.50;;;;;;5010098;28;20124;-64
2021/01/20 02:05:14;;;;;;;4.97;2.75;;;1.20;70.50;;;;;;5019059;28;20021;-64
2021/01/20 02:07:39;;;;;;;3.28;2.83;;;1.20;70.60;;;;;;5017259;28;20575;-66
2021/01/20 02:10:06;;;;;;;3.85;3.05;;;1.20;70.80;;;;;;5018413;28;20052;-63
2021/01/20 02:12:52;;;;;;;4.72;3.50;;;1.20;70.90;;;;;;4996229;28;20077;-66
2021/01/20 02:15:52;;;;;;;4.93;3.63;;;1.20;70.80;;;;;;5006401;28;20033;-66
2021/01/20 02:18:22;;;;;;;6.20;3.75;;;1.30;70.60;;;;;;5015457;28;20091;-63
2021/01/20 02:21:15;;;;;;;4.47;3.28;;;1.30;70.60;;;;;;5016754;28;20118;-63
2021/01/20 02:23:43;;;;;;;3.97;2.70;;;1.30;70.60;;;;;;5017013;28;20946;-64
2021/01/20 02:26:25;;;;;;;4.55;2.40;;;1.20;70.80;;;;;;5018606;28;20037;-64
2021/01/20 02:29:06;;;;;;;3.05;2.38;;;1.20;71.50;;;;;;5016289;28;20040;-65
2021/01/20 02:31:32;;;;;;;3.50;2.15;;;1.20;71.70;;;;;;5013265;28;20038;-63
2021/01/20 02:34:02;;;;;;;3.10;2.15;;;1.20;71.90;;;;;;5017336;28;20576;-65
2021/01/20 02:36:30;;;;;;;2.88;2.20;;;1.20;72.00;;;;;;5017397;28;20163;-65
2021/01/20 02:38:56;;;;;;;3.92;2.15;;;1.20;72.90;;;;;;5016068;28;20037;-66
2021/01/20 02:41:27;;;;;;;2.13;1.92;;;1.30;72.00;;;;;;5018105;28;20049;-66
2021/01/20 02:43:53;;;;;;;2.67;2.40;;;1.30;72.00;;;;;;5015190;28;20564;-65
2021/01/20 02:46:20;;;;;;;2.67;2.05;;;1.30;71.90;;;;;;5017819;28;20038;-64
2021/01/20 02:48:48;;;;;;;4.05;2.00;;;1.30;71.80;;;;;;5016830;28;20586;-65
2021/01/20 02:51:20;;;;;;;2.55;2.10;;;1.30;71.80;;;;;;5015352;28;20034;-65
2021/01/20 02:53:47;;;;;;;2.45;1.80;;;1.30;71.80;;;;;;5018464;28;20115;-65
2021/01/20 02:56:18;;;;;;;2.40;1.95;;;1.40;72.00;;;;;;5017169;28;20116;-63
2021/01/20 02:58:46;;;;;;;3.15;1.83;;;1.40;72.30;;;;;;5016528;28;20081;-63
2021/01/20 03:01:14;;;;;;;2.70;1.92;;;1.40;72.40;;;;;;5047583;28;20083;-63
2021/01/20 03:03:41;;;;;;;2.92;2.30;;;1.40;72.40;;;;;;5017657;28;20034;-64
2021/01/20 03:06:08;;;;;;;4.60;2.80;;;1.40;72.00;;;;;;5016725;28;20115;-65
2021/01/20 03:08:35;;;;;;;3.00;2.60;;;1.30;71.60;;;;;;5017548;28;20072;-64
2021/01/20 03:11:05;;;;;;;4.90;2.80;;;1.30;71.70;;;;;;5017652;28;20030;-65
2021/01/20 03:13:37;;;;;;;3.42;2.25;;;1.30;71.50;;;;;;5014974;28;20052;-65
2021/01/20 03:16:05;;;;;;;3.25;2.53;;;1.30;71.60;;;;;;5016094;28;20057;-64
2021/01/20 03:18:31;;;;;;;3.67;2.75;;;1.30;71.60;;;;;;5017263;28;20034;-62
2021/01/20 03:20:57;;;;;;;3.78;2.70;;;1.30;71.50;;;;;;5017544;28;20038;-64
2021/01/20 03:23:22;;;;;;;4.10;2.97;;;1.20;71.20;;;;;;5017729;28;20591;-64
2021/01/20 03:25:48;;;;;;;3.75;2.63;;;1.20;71.20;;;;;;5046305;28;20077;-64
2021/01/20 03:28:14;;;;;;;3.67;2.72;;;1.20;71.20;;;;;;5014057;28;20034;-64
2021/01/20 03:30:39;;;;;;;3.05;2.75;;;1.20;71.10;;;;;;5015353;28;20033;-63
2021/01/20 03:33:05;;;;;;;3.42;2.70;;;1.10;71.20;;;;;;5017109;28;20560;-64
2021/01/20 03:35:34;;;;;;;6.15;3.10;;;1.10;71.20;;;;;;5014950;28;20034;-64
2021/01/20 03:38:00;;;;;;;6.53;3.00;;;1.10;71.20;;;;;;5017100;28;20030;-64
2021/01/20 03:40:26;;;;;;;4.55;3.13;;;1.00;71.00;;;;;;5015722;28;20037;-65
2021/01/20 03:42:51;;;;;;;4.13;3.00;;;1.00;71.90;;;;;;5016717;28;20038;-64
2021/01/20 03:45:17;;;;;;;5.43;3.10;;;1.00;71.20;;;;;;5014181;28;20033;-64
2021/01/20 03:47:43;;;;;;;3.78;2.90;;;0.90;71.30;;;;;;5015917;28;20033;-64
2021/01/20 03:50:09;;;;;;;3.88;2.97;;;0.90;71.50;;;;;;5017532;28;20188;-64
2021/01/20 03:52:34;;;;;;;4.47;3.30;;;0.90;71.60;;;;;;5044967;28;20030;-64
2021/01/20 03:55:00;;;;;;;5.25;3.20;;;0.90;71.70;;;;;;5017024;28;20052;-65
2021/01/20 03:57:26;;;;;;;4.45;3.53;;;0.80;71.50;;;;;;5012819;28;20518;-66
2021/01/20 03:59:51;;;;;;;5.85;3.50;;;0.80;71.50;;;;;;5017458;28;20155;-64
2021/01/20 04:02:17;;;;;;;4.93;3.50;;;0.90;71.50;;;;;;5015576;28;20033;-63
2021/01/20 04:04:42;;;;;;;4.70;3.50;;;0.90;71.50;;;;;;5015362;28;20697;-64
2021/01/20 04:07:08;;;;;;;5.90;3.53;;;0.80;71.50;;;;;;5016214;28;20049;-63
2021/01/20 04:09:33;;;;;;;4.60;3.22;;;0.80;71.50;;;;;;5015672;28;20030;-64
2021/01/20 04:11:59;;;;;;;5.43;3.60;;;0.90;71.30;;;;;;5015415;28;20045;-62
2021/01/20 04:14:25;;;;;;;5.65;3.47;;;0.90;71.50;;;;;;5017015;28;20037;-64
2021/01/20 04:16:50;;;;;;;4.75;3.38;;;0.90;71.40;;;;;;5009099;28;20030;-64
2021/01/20 04:19:16;;;;;;;5.63;3.35;;;0.90;71.10;;;;;;4995890;28;20062;-62
2021/01/20 04:21:42;;;;;;;6.03;3.42;;;0.90;71.00;;;;;;4995093;28;20468;-63
2021/01/20 04:24:08;;;;;;;5.22;3.85;;;0.90;71.00;;;;;;4993092;28;20030;-63
2021/01/20 04:26:33;;;;;;;5.60;4.18;;;0.90;70.90;;;;;;4992386;28;20136;-63
2021/01/20 04:28:59;;;;;;;6.15;3.70;;;0.80;70.70;;;;;;4993565;28;20043;-63
2021/01/20 04:31:24;;;;;;;4.65;3.67;;;0.80;70.80;;;;;;4991716;28;20120;-63
2021/01/20 04:33:50;;;;;;;4.45;3.75;;;0.80;71.00;;;;;;4997654;28;20134;-63
2021/01/20 04:36:16;;;;;;;3.95;3.55;;;0.80;71.00;;;;;;4995550;28;20039;-63
2021/01/20 04:38:41;;;;;;;5.13;3.47;;;0.70;70.90;;;;;;4993960;28;20058;-63
2021/01/20 04:41:07;;;;;;;4.40;3.40;;;0.70;71.10;;;;;;4992751;28;20053;-64
2021/01/20 04:43:32;;;;;;;6.22;3.72;;;0.60;71.30;;;;;;4996867;28;20070;-63
2021/01/20 04:45:59;;;;;;;8.90;5.25;;;0.60;71.30;;;;;;4993304;28;20084;-64
2021/01/20 04:48:31;;;;;;;6.63;4.50;;;0.70;71.20;;;;;;4997554;28;20709;-63
2021/01/20 04:51:01;;;;;;;6.57;4.28;;;0.70;71.30;;;;;;4997350;28;20505;-63
2021/01/20 04:53:27;;;;;;;6.85;4.45;;;0.70;71.40;;;;;;5031541;28;20053;-63
2021/01/20 04:55:55;;;;;;;5.90;3.88;;;0.70;70.80;;;;;;5032456;28;20113;-62
2021/01/20 04:58:22;;;;;;;5.32;3.85;;;0.70;71.00;;;;;;4996886;28;20046;-63
2021/01/20 05:00:47;;;;;;;5.45;3.97;;;0.60;70.80;;;;;;4999305;28;20052;-63
2021/01/20 05:03:13;;;;;;;6.95;4.72;;;0.60;70.80;;;;;;5001449;28;20040;-63
2021/01/20 05:05:38;;;;;;;6.40;4.38;;;0.50;71.20;;;;;;4999543;28;20033;-63
2021/01/20 05:08:05;;;;;;;8.15;4.35;;;0.40;71.60;;;;;;4995842;28;20092;-63
2021/01/20 05:10:31;;;;;;;4.82;3.83;;;0.40;71.70;;;;;;4998887;28;20742;-63
2021/01/20 05:12:56;;;;;;;5.93;3.95;;;0.40;71.80;;;;;;4998633;28;20037;-64
2021/01/20 05:15:31;;;;;;;4.88;3.80;;;0.30;71.90;;;;;;4998448;28;20407;-63
2021/01/20 05:18:04;;;;;;;5.25;3.92;;;0.30;71.70;;;;;;4998922;28;20081;-63
2021/01/20 05:20:32;;;;;;;5.07;3.55;;;0.30;71.70;;;;;;4999072;28;20056;-63
2021/01/20 05:22:59;;;;;;;7.18;3.70;;;0.30;71.80;;;;;;4999276;28;20502;-63
2021/01/20 05:25:49;;;;;;;6.07;3.90;;;0.30;72.70;;;;;;4999288;28;20053;-63
2021/01/20 05:28:28;;;;;;;4.20;3.50;;;0.20;72.20;;;;;;4996397;28;20038;-63
2021/01/20 05:30:55;;;;;;;5.28;3.72;;;0.20;72.20;;;;;;5016325;28;20091;-64
2021/01/20 05:33:23;;;;;;;4.95;3.30;;;0.10;72.20;;;;;;5016263;28;20037;-63
2021/01/20 05:36:06;;;;;;;4.93;3.30;;;0.10;72.50;;;;;;5013394;28;20030;-63
2021/01/20 05:38:41;;;;;;;4.55;3.63;;;0.10;72.60;;;;;;5019263;28;20163;-63
2021/01/20 05:41:27;;;;;;;5.03;3.47;;;0.10;72.60;;;;;;5019046;28;20416;-63
2021/01/20 05:44:11;;;;;;;4.45;3.15;;;0.10;72.70;;;;;;5019795;28;20034;-63
2021/01/20 05:46:40;;;;;;;4.43;2.83;;;0.20;72.70;;;;;;5017578;28;20056;-63
2021/01/20 05:49:06;;;;;;;4.20;3.28;;;0.10;72.70;;;;;;5049861;28;20043;-63
2021/01/20 05:51:42;;;;;;;4.40;3.28;;;0.10;72.70;;;;;;5018106;28;20038;-63
2021/01/20 05:54:10;;;;;;;4.00;3.30;;;0.10;72.70;;;;;;5019353;28;20049;-63
2021/01/20 05:56:36;;;;;;;5.57;3.50;;;0.10;72.70;;;;;;5019460;28;20095;-63
2021/01/20 05:59:09;;;;;;;4.97;3.55;;;0.20;72.70;;;;;;5016436;28;20034;-63
2021/01/20 06:01:35;;;;;;;5.25;3.40;;;0.10;72.70;;;;;;5018737;28;20075;-63
2021/01/20 06:04:01;;;;;;;6.63;4.18;;;0.00;72.60;;;;;;5020152;28;20576;-63
2021/01/20 06:06:27;;;;;;;7.03;4.10;;;0.00;72.60;;;;;;5020143;28;20037;-63
2021/01/20 06:08:55;;;;;;;5.10;3.63;;;0.00;72.80;;;;;;5019373;28;20033;-63
2021/01/20 06:11:21;;;;;;;5.65;3.55;;;0.00;73.10;;;;;;5017748;28;20029;-64
2021/01/20 06:13:47;;;;;;;5.45;3.70;;;0.10;73.30;;;;;;5018711;28;20038;-63
2021/01/20 06:16:19;;;;;;;4.20;3.63;;;0.10;73.30;;;;;;5019189;28;20040;-63
2021/01/20 06:19:16;;;;;;;5.50;3.72;;;0.00;73.10;;;;;;5023187;28;20540;-63
2021/01/20 06:21:44;;;;;;;6.68;4.35;;;0.10;73.20;;;;;;5021968;28;20048;-63
2021/01/20 06:24:46;;;;;;;5.63;4.20;;;0.10;73.00;;;;;;5051337;28;20128;-63
2021/01/20 06:27:13;;;;;;;8.48;4.72;;;0.10;73.10;;;;;;5018108;28;20072;-63
2021/01/20 06:29:45;;;;;;;7.97;5.20;;;0.10;73.10;;;;;;5019190;28;20121;-64
2021/01/20 06:32:18;;;;;;;5.65;4.20;;;0.20;73.00;;;;;;5019773;28;20032;-63
2021/01/20 06:34:54;;;;;;;5.20;4.13;;;0.20;72.90;;;;;;5018574;28;20030;-63
2021/01/20 06:37:44;;;;;;;7.13;4.65;;;0.20;72.80;;;;;;5018187;28;20038;-64
2021/01/20 06:40:18;;;;;;;5.50;4.18;;;0.20;72.90;;;;;;5019529;28;20420;-63
2021/01/20 06:42:44;;;;;;;6.28;4.70;;;0.20;72.90;;;;;;5018796;28;20497;-63
2021/01/20 06:45:13;;;;;;;5.47;4.30;;;0.10;72.90;;;;;;5018549;28;20045;-63
2021/01/20 06:47:58;;;;;;;6.30;4.97;;;0.10;73.00;;;;;;5028122;28;20040;-62
2021/01/20 06:50:23;;;;;;;8.38;5.95;;;0.10;73.20;;;;;;5018448;28;20045;-63
2021/01/20 06:53:06;;;;;;;11.85;6.95;;;0.10;73.10;;;;;;5018511;28;20088;-63
2021/01/20 06:55:34;;;;;;;12.55;7.82;;;0.10;73.30;;;;;;5019115;28;20033;-63
2021/01/20 06:58:26;;;;;;;8.57;6.25;;;0.10;73.30;;;;;;5018445;28;20076;-63
2021/01/20 07:01:00;;;;;;;10.43;6.75;;;0.10;73.60;;;;;;5018034;28;20506;-63
2021/01/20 07:03:59;;;;;;;;;;;0.10;73.60;;;;;;5019419;28;20053;-62
2021/01/20 07:06:33;;;;;;;13.30;8.32;;;0.20;73.70;;;;;;5018089;28;20278;-62
2021/01/20 07:08:59;;;;;;;;;;;0.10;73.40;;;;;;5018114;28;20525;-62
2021/01/20 07:11:25;;;;;;;14.93;8.57;;;0.20;73.60;;;;;;5033092;28;20554;-63
2021/01/20 07:13:51;;;;;;;24.73;13.70;;;0.10;73.20;;;;;;5018867;28;20042;-62
2021/01/20 07:16:17;;;;;;;25.73;14.48;;;0.10;73.40;;;;;;5017097;28;20161;-63
2021/01/20 07:18:46;;;;;;;20.25;11.73;;;0.10;73.50;;;;;;5017588;28;20041;-62
2021/01/20 07:21:12;;;;;;;20.13;12.30;;;0.10;73.60;;;;;;5018376;28;20033;-61
2021/01/20 07:23:37;;;;;;;21.73;12.38;;;0.00;74.10;;;;;;5018846;28;20060;-62
2021/01/20 07:26:04;;;;;;;21.27;12.55;;;0.10;73.80;;;;;;5018402;28;20038;-63
2021/01/20 07:28:31;;;;;;;20.48;11.95;;;0.10;73.80;;;;;;5017545;28;20049;-62
2021/01/20 07:31:04;;;;;;;28.50;15.02;;;0.10;73.90;;;;;;5016729;28;20075;-62
2021/01/20 07:33:30;;;;;;;25.08;13.50;;;0.10;73.70;;;;;;5049818;28;20032;-63
2021/01/20 07:35:56;;;;;;;25.75;13.30;;;0.10;73.70;;;;;;5019301;28;20509;-63
2021/01/20 07:38:31;;;;;;;21.23;12.68;;;0.10;73.80;;;;;;5017875;28;20553;-63
2021/01/20 07:40:57;;;;;;;22.05;12.52;;;0.20;74.00;;;;;;5017150;28;20044;-62
2021/01/20 07:43:24;;;;;;;19.10;11.32;;;0.20;74.00;;;;;;5019294;28;20045;-62
2021/01/20 07:45:54;;;;;;;21.73;11.95;;;0.30;73.90;;;;;;5016803;28;20457;-62
2021/01/20 07:48:37;;;;;;;19.83;12.20;;;0.30;73.70;;;;;;5018205;28;20564;-62
2021/01/20 07:51:03;;;;;;;19.83;11.70;;;0.30;74.00;;;;;;5016897;28;20054;-62
2021/01/20 07:53:29;;;;;;;20.08;11.50;;;0.30;73.90;;;;;;5049293;28;20159;-62
2021/01/20 07:55:55;;;;;;;15.20;8.80;;;0.30;74.00;;;;;;5018040;28;20116;-62
2021/01/20 07:58:28;;;;;;;15.75;9.07;;;0.40;74.00;;;;;;5017506;28;20188;-62
2021/01/20 08:00:55;;;;;;;17.33;9.40;;;0.40;74.20;;;;;;5016103;28;20120;-63
2021/01/20 08:03:34;;;;;;;14.70;9.30;;;0.40;74.20;;;;;;5010253;28;20045;-63
2021/01/20 08:06:01;;;;;;;16.17;9.27;;;0.50;74.40;;;;;;5018117;28;20532;-61
2021/01/20 08:08:27;;;;;;;13.40;8.63;;;0.50;74.30;;;;;;5017421;28;20034;-63
2021/01/20 08:10:57;;;;;;;18.58;10.38;;;0.50;74.30;;;;;;5016744;28;20034;-63
2021/01/20 08:13:26;;;;;;;21.65;11.52;;;0.60;74.50;;;;;;5033033;28;20057;-62
2021/01/20 08:15:52;;;;;;;21.15;12.00;;;0.60;74.40;;;;;;5017419;28;20026;-63
2021/01/20 08:18:19;;;;;;;16.38;8.73;;;0.70;74.50;;;;;;5017855;28;20455;-62
2021/01/20 08:20:45;;;;;;;11.25;7.05;;;0.80;74.50;;;;;;5015395;28;20069;-63
2021/01/20 08:23:34;;;;;;;8.55;4.43;;;0.80;74.50;;;;;;5028320;28;20417;-61
2021/01/20 08:26:05;;;;;;;12.02;7.03;;;0.90;74.80;;;;;;5021495;28;20501;-62
2021/01/20 08:28:30;;;;;;;15.05;8.13;;;0.90;74.60;;;;;;5018871;28;20037;-62
2021/01/20 08:30:56;;;;;;;18.63;10.27;;;1.00;74.60;;;;;;5021414;28;20463;-58
2021/01/20 08:33:22;;;;;;;36.33;14.13;;;1.00;74.50;;;;;;5018787;28;20037;-62
2021/01/20 08:35:56;;;;;;;35.35;15.88;;;1.10;74.50;;;;;;5020256;28;20057;-62
2021/01/20 08:38:27;;;;;;;44.13;19.85;;;1.10;74.50;;;;;;5020696;28;20508;-62
2021/01/20 08:41:10;;;;;;;54.40;19.85;;;1.20;74.50;;;;;;5020053;28;20042;-62
2021/01/20 08:43:35;;;;;;;61.70;24.35;;;1.20;74.50;;;;;;5021100;28;20038;-63
2021/01/20 08:46:21;;;;;;;59.45;22.52;;;1.30;74.40;;;;;;5020320;28;20040;-62
2021/01/20 08:48:54;;;;;;;61.03;22.17;;;1.30;74.50;;;;;;5019567;28;20413;-62
2021/01/20 08:51:19;;;;;;;72.32;24.50;;;1.40;74.50;;;;;;5020860;28;20034;-63
2021/01/20 08:53:45;;;;;;;76.65;25.58;;;1.40;74.50;;;;;;5021111;28;20083;-62
2021/01/20 08:56:10;;;;;;;60.53;22.45;;;1.50;74.50;;;;;;5021733;28;20099;-61
2021/01/20 08:58:36;;;;;;;16.92;8.45;;;1.60;74.60;;;;;;5018410;28;20113;-61
2021/01/20 09:01:15;;;;;;;7.90;4.80;;;1.60;74.50;;;;;;5020410;28;20038;-61
2021/01/20 09:04:00;;;;;;;8.90;6.00;;;1.60;74.50;;;;;;5021103;28;20033;-62
2021/01/20 09:06:26;;;;;;;;;;;1.70;74.80;;;;;;5020989;28;20025;-61
2021/01/20 09:08:52;;;;;;;23.98;10.38;;;1.80;75.00;;;;;;5019602;28;20012;-62
2021/01/20 09:11:18;;;;;;;30.55;12.52;;;1.80;74.60;;;;;;5020560;28;20304;-63
2021/01/20 09:13:46;;;;;;;28.92;13.25;;;1.90;74.80;;;;;;5020701;28;20332;-62
2021/01/20 09:16:13;;;;;;;19.80;8.85;;;1.90;74.50;;;;;;5019573;28;20068;-64
2021/01/20 09:18:38;;;;;;;29.38;13.05;;;2.00;74.50;;;;;;5019049;28;20037;-63
2021/01/20 09:21:05;;;;;;;28.83;13.70;;;2.10;74.50;;;;;;5020343;28;20072;-63
2021/01/20 09:23:31;;;;;;;32.22;14.55;;;2.20;74.50;;;;;;5020795;28;20030;-63
2021/01/20 09:25:57;;;;;;;44.00;15.32;;;2.30;74.50;;;;;;5020239;28;20032;-63
2021/01/20 09:28:22;;;;;;;44.83;15.10;;;2.40;74.50;;;;;;5018622;28;20042;-63
2021/01/20 09:30:48;;;;;;;41.92;14.60;;;2.40;74.50;;;;;;5018687;28;20425;-62
2021/01/20 09:33:14;;;;;;;26.90;11.25;;;2.50;74.30;;;;;;5019393;28;20026;-62
2021/01/20 09:35:40;;;;;;;15.63;8.60;;;2.60;74.30;;;;;;5020369;28;20033;-63
2021/01/20 09:38:07;;;;;;;13.57;7.55;;;2.70;74.30;;;;;;5019927;28;20156;-64
2021/01/20 09:40:33;;;;;;;18.75;9.63;;;2.80;74.50;;;;;;5019558;28;20042;-64
2021/01/20 09:42:59;;;;;;;13.45;7.47;;;2.90;74.70;;;;;;5020366;28;20525;-62
2021/01/20 09:45:27;;;;;;;11.07;6.90;;;3.00;75.40;;;;;;5018848;28;20049;-60
2021/01/20 09:47:54;;;;;;;15.35;6.78;;;3.10;74.40;;;;;;5020430;28;20129;-62
2021/01/20 09:50:20;;;;;;;10.52;6.35;;;3.20;75.20;;;;;;5017380;28;20053;-64
2021/01/20 09:52:47;;;;;;;13.13;7.07;;;3.30;74.30;;;;;;5019093;28;20500;-62
2021/01/20 09:55:16;;;;;;;45.67;14.75;;;3.40;74.20;;;;;;5019769;28;20026;-61
2021/01/20 09:57:42;;;;;;;38.40;15.57;;;3.50;74.00;;;;;;5018969;28;20048;-63
2021/01/20 10:00:09;;;;;;;19.10;10.38;;;3.60;73.80;;;;;;5017982;28;20029;-62
2021/01/20 10:02:37;;;;;;;13.63;6.95;;;3.60;73.40;;;;;;5019626;28;20047;-62
2021/01/20 10:05:04;;;;;;;14.52;7.35;;;3.80;73.40;;;;;;5018848;28;20033;-62
2021/01/20 10:07:29;;;;;;;11.32;6.80;;;3.80;73.10;;;;;;5019618;28;20048;-62
2021/01/20 10:09:55;;;;;;;12.40;7.15;;;3.90;73.10;;;;;;5005094;28;20392;-62
2021/01/20 10:12:20;;;;;;;10.38;6.45;;;4.00;73.10;;;;;;4998226;28;20103;-64
2021/01/20 10:14:46;;;;;;;10.18;5.90;;;4.10;73.10;;;;;;5002842;28;20516;-62
2021/01/20 10:17:12;;;;;;;8.93;5.80;;;4.20;73.00;;;;;;5011147;28;20105;-62
2021/01/20 10:19:38;;;;;;;9.02;5.30;;;4.30;72.80;;;;;;4998944;28;20034;-63
2021/01/20 10:22:04;;;;;;;6.03;4.63;;;4.30;72.60;;;;;;4999019;28;20053;-64
2021/01/20 10:24:29;;;;;;;6.68;3.75;;;4.40;72.50;;;;;;4998703;28;20438;-62
2021/01/20 10:26:55;;;;;;;4.35;3.45;;;4.50;72.40;;;;;;4999017;28;20153;-62
2021/01/20 10:29:21;;;;;;;4.07;3.20;;;4.60;73.20;;;;;;5007306;28;20034;-62
2021/01/20 10:31:46;;;;;;;5.45;3.60;;;4.60;72.20;;;;;;5018791;28;20037;-62
2021/01/20 10:34:13;;;;;;;5.57;3.83;;;4.70;72.20;;;;;;5018582;28;20041;-63
2021/01/20 10:36:40;;;;;;;4.60;3.55;;;4.80;72.00;;;;;;5018415;28;20464;-63
2021/01/20 10:39:07;;;;;;;4.15;3.60;;;4.90;71.90;;;;;;5018198;28;20025;-63
2021/01/20 10:41:33;;;;;;;4.70;3.80;;;5.00;71.60;;;;;;5017534;28;20038;-63
2021/01/20 10:43:58;;;;;;;4.80;3.33;;;5.00;71.30;;;;;;5020342;28;20038;-63
2021/01/20 10:46:28;;;;;;;4.57;3.50;;;5.10;71.20;;;;;;5016524;28;20670;-63
2021/01/20 10:48:54;;;;;;;4.95;4.35;;;5.20;71.10;;;;;;5018261;28;20040;-62
2021/01/20 10:51:21;;;;;;;7.20;4.45;;;5.30;71.00;;;;;;5018640;28;20033;-62
2021/01/20 10:53:47;;;;;;;6.63;4.53;;;5.30;71.00;;;;;;5018010;28;20660;-62
2021/01/20 10:56:12;;;;;;;7.38;5.03;;;5.40;71.00;;;;;;5019080;28;20053;-61
2021/01/20 10:58:38;;;;;;;13.73;8.73;;;5.50;71.00;;;;;;5016536;28;20501;-62
2021/01/20 11:01:04;;;;;;;9.43;6.03;;;5.50;69.80;;;;;;5016419;28;20575;-62
2021/01/20 11:03:30;;;;;;;5.78;4.13;;;5.50;69.20;;;;;;5018891;28;20036;-62
2021/01/20 11:05:56;;;;;;;5.45;3.95;;;5.50;69.50;;;;;;5018706;28;20784;-61
2021/01/20 11:08:22;;;;;;;7.57;4.03;;;5.50;69.60;;;;;;5016602;28;20034;-62
2021/01/20 11:10:48;;;;;;;10.43;6.35;;;5.50;69.60;;;;;;5013513;28;20401;-62
2021/01/20 11:13:15;;;;;;;11.90;6.63;;;5.60;69.80;;;;;;4998325;28;20042;-62
2021/01/20 11:15:48;;;;;;;13.25;7.93;;;5.70;69.80;;;;;;4997348;28;20125;-63
2021/01/20 11:18:16;;;;;;;13.95;8.15;;;5.70;69.70;;;;;;4997871;28;20037;-63
2021/01/20 11:20:43;;;;;;;11.52;6.82;;;5.70;69.40;;;;;;5014093;28;20041;-62
2021/01/20 11:23:10;;;;;;;15.95;6.38;;;5.70;69.30;;;;;;4998293;28;20069;-62
2021/01/20 11:25:37;;;;;;;11.55;6.28;;;5.80;69.10;;;;;;4998934;28;20041;-63
2021/01/20 11:28:03;;;;;;;7.95;5.22;;;5.80;69.20;;;;;;4998122;28;20100;-62
2021/01/20 11:30:29;;;;;;;7.72;4.53;;;5.80;69.10;;;;;;5028825;28;20490;-62
2021/01/20 11:32:54;;;;;;;10.98;4.78;;;5.90;69.20;;;;;;4997324;28;20030;-62
2021/01/20 11:35:21;;;;;;;6.78;4.63;;;5.90;69.30;;;;;;4998878;28;20477;-64
2021/01/20 11:37:47;;;;;;;7.95;3.20;;;6.00;69.20;;;;;;4997543;28;20049;-64
2021/01/20 11:40:13;;;;;;;4.60;3.33;;;6.00;68.90;;;;;;4999240;28;20038;-63
2021/01/20 11:42:38;;;;;;;6.35;4.00;;;6.00;68.90;;;;;;4997211;28;20046;-63
2021/01/20 11:45:05;;;;;;;5.82;3.78;;;6.10;68.90;;;;;;4998577;28;20494;-65
2021/01/20 11:47:30;;;;;;;5.35;4.38;;;6.10;68.70;;;;;;4996370;28;20467;-63
2021/01/20 11:49:56;;;;;;;5.32;4.30;;;6.10;68.00;;;;;;4996927;28;20045;-64
2021/01/20 11:52:21;;;;;;;5.30;4.30;;;6.10;67.90;;;;;;4996164;28;20030;-63
2021/01/20 11:54:48;;;;;;;7.22;4.28;;;6.20;68.20;;;;;;4997967;28;20057;-63
2021/01/20 11:57:14;;;;;;;5.90;4.22;;;6.20;68.20;;;;;;4995103;28;20406;-63
2021/01/20 11:59:40;;;;;;;8.07;5.95;;;6.30;68.40;;;;;;4997960;28;20622;-64
2021/01/20 12:02:07;;;;;;;7.72;5.75;;;6.40;68.60;;;;;;4997946;28;20037;-63
2021/01/20 12:04:33;;;;;;;7.05;4.80;;;6.30;68.50;;;;;;4997812;28;20034;-65
2021/01/20 12:06:58;;;;;;;6.75;5.05;;;6.30;68.40;;;;;;4997039;28;20037;-63
2021/01/20 12:09:24;;;;;;;6.60;4.88;;;6.40;68.50;;;;;;4997913;28;20303;-63
2021/01/20 12:11:50;;;;;;;5.53;4.20;;;6.50;68.50;;;;;;5008255;28;20052;-63
2021/01/20 12:14:15;;;;;;;7.35;4.80;;;6.50;69.30;;;;;;5017556;28;20037;-64
2021/01/20 12:16:41;;;;;;;8.75;5.43;;;6.50;68.30;;;;;;5016062;28;20364;-64
2021/01/20 12:19:08;;;;;;;10.57;4.63;;;6.50;68.10;;;;;;5017772;28;20567;-63
2021/01/20 12:21:33;;;;;;;6.78;4.28;;;6.60;67.90;;;;;;5017520;28;20044;-63
2021/01/20 12:23:59;;;;;;;5.75;3.90;;;6.60;67.80;;;;;;5017949;28;20034;-64
2021/01/20 12:26:25;;;;;;;7.38;4.40;;;6.70;67.90;;;;;;5016105;28;20481;-64
2021/01/20 12:28:50;;;;;;;7.00;3.90;;;6.80;68.00;;;;;;5016782;28;20048;-63
2021/01/20 12:31:16;;;;;;;7.00;4.50;;;6.80;67.80;;;;;;5016005;28;20038;-63
2021/01/20 12:33:42;;;;;;;9.88;5.55;;;6.90;68.60;;;;;;5017433;28;20040;-64
2021/01/20 12:36:08;;;;;;;8.77;5.68;;;6.90;68.00;;;;;;5016924;28;20100;-64
2021/01/20 12:38:33;;;;;;;7.45;5.22;;;7.00;68.10;;;;;;5016380;28;20571;-64
2021/01/20 12:40:59;;;;;;;7.13;4.78;;;7.10;67.90;;;;;;5016671;28;20300;-64
2021/01/20 12:43:24;;;;;;;5.55;3.30;;;7.10;67.80;;;;;;5017263;28;20108;-63
2021/01/20 12:45:50;;;;;;;3.72;2.53;;;7.20;67.60;;;;;;5015633;28;20034;-64
2021/01/20 12:48:17;;;;;;;2.10;1.90;;;7.20;67.30;;;;;;5016292;28;20042;-64
2021/01/20 12:50:42;;;;;;;2.88;1.92;;;7.20;67.10;;;;;;5014312;28;20040;-64
2021/01/20 12:53:08;;;;;;;1.75;1.65;;;7.30;66.90;;;;;;5017289;28;20030;-66
2021/01/20 12:55:34;;;;;;;1.80;1.70;;;7.30;66.70;;;;;;5016803;28;20088;-64
2021/01/20 12:57:59;;;;;;;2.33;1.83;;;7.20;66.60;;;;;;5017162;28;20041;-63